sensor_id;sensor_type;location;lat;lon;timestamp;pressure;altitude;pressure_sealevel;temperature;humidity
7836;BME280;3963;42.658;23.298;2022-08-01T00:01:14;60660.81;;;19.77;75.87
7836;BME280;3963;42.658;23.298;2022-08-01T00:03:41;60703.38;;;19.77;76.19
7836;BME280;3963;42.658;23.298;2022-08-01T00:06:08;60710.75;;;19.77;75.10
7836;BME280;3963;42.658;23.298;2022-08-01T00:08:35;60701.78;;;19.76;74.62
7836;BME280;3963;42.658;23.298;2022-08-01T00:11:03;60673.06;;;19.66;73.74
7836;BME280;3963;42.658;23.298;2022-08-01T00:13:30;60615.38;;;19.54;73.61
7836;BME280;3963;42.658;23.298;2022-08-01T00:15:57;60663.59;;;19.50;73.62
7836;BME280;3963;42.658;23.298;2022-08-01T00:18:24;60638.03;;;19.56;73.63
7836;BME280;3963;42.658;23.298;2022-08-01T00:20:51;60670.19;;;19.59;73.91
7836;BME280;3963;42.658;23.298;2022-08-01T00:23:17;60687.03;;;19.60;74.25
7836;BME280;3963;42.658;23.298;2022-08-01T00:25:44;60664.47;;;19.61;73.77
7836;BME280;3963;42.658;23.298;2022-08-01T00:28:12;60671.25;;;19.60;73.55
7836;BME280;3963;42.658;23.298;2022-08-01T00:30:39;60679.44;;;19.53;73.17
7836;BME280;3963;42.658;23.298;2022-08-01T00:33:06;60655.34;;;19.55;73.39
7836;BME280;3963;42.658;23.298;2022-08-01T00:35:33;60701.25;;;19.61;73.44
7836;BME280;3963;42.658;23.298;2022-08-01T00:38:00;60662.44;;;19.47;73.47
7836;BME280;3963;42.658;23.298;2022-08-01T00:40:27;60654.38;;;19.42;73.42
7836;BME280;3963;42.658;23.298;2022-08-01T00:42:54;60640.78;;;19.44;73.46
7836;BME280;3963;42.658;23.298;2022-08-01T00:45:23;60638.25;;;19.31;74.34
7836;BME280;3963;42.658;23.298;2022-08-01T00:47:49;60649.03;;;19.39;73.13
7836;BME280;3963;42.658;23.298;2022-08-01T00:50:17;60641.16;;;19.39;73.13
7836;BME280;3963;42.658;23.298;2022-08-01T00:52:44;60649.00;;;19.54;73.94
7836;BME280;3963;42.658;23.298;2022-08-01T00:55:12;60652.38;;;19.45;74.72
7836;BME280;3963;42.658;23.298;2022-08-01T00:57:39;60648.66;;;19.44;76.29
7836;BME280;3963;42.658;23.298;2022-08-01T01:00:08;60587.22;;;19.13;80.33
7836;BME280;3963;42.658;23.298;2022-08-01T01:02:38;60570.34;;;18.95;82.63
7836;BME280;3963;42.658;23.298;2022-08-01T01:05:06;60592.13;;;19.03;81.95
7836;BME280;3963;42.658;23.298;2022-08-01T01:07:40;60596.06;;;18.95;83.00
7836;BME280;3963;42.658;23.298;2022-08-01T01:10:16;60564.47;;;18.92;83.30
7836;BME280;3963;42.658;23.298;2022-08-01T01:12:48;60543.97;;;18.75;85.42
7836;BME280;3963;42.658;23.298;2022-08-01T01:15:22;60555.31;;;18.69;86.38
7836;BME280;3963;42.658;23.298;2022-08-01T01:17:55;60518.16;;;18.56;85.59
7836;BME280;3963;42.658;23.298;2022-08-01T01:20:28;60529.34;;;18.62;82.84
7836;BME280;3963;42.658;23.298;2022-08-01T01:23:15;60519.31;;;18.60;79.16
7836;BME280;3963;42.658;23.298;2022-08-01T01:26:15;60488.81;;;18.58;77.60
7836;BME280;3963;42.658;23.298;2022-08-01T01:29:08;60522.47;;;18.60;76.16
7836;BME280;3963;42.658;23.298;2022-08-01T01:31:42;60533.06;;;18.63;75.04
7836;BME280;3963;42.658;23.298;2022-08-01T01:34:11;60523.00;;;18.61;75.17
7836;BME280;3963;42.658;23.298;2022-08-01T01:36:39;60553.13;;;18.67;73.70
7836;BME280;3963;42.658;23.298;2022-08-01T01:39:07;60553.94;;;18.75;73.23
7836;BME280;3963;42.658;23.298;2022-08-01T01:41:36;60527.13;;;18.74;72.28
7836;BME280;3963;42.658;23.298;2022-08-01T01:44:05;60525.25;;;18.65;71.81
7836;BME280;3963;42.658;23.298;2022-08-01T01:46:34;60531.22;;;18.71;71.78
7836;BME280;3963;42.658;23.298;2022-08-01T01:49:03;60508.34;;;18.62;69.22
7836;BME280;3963;42.658;23.298;2022-08-01T01:51:31;60523.72;;;18.66;68.37
7836;BME280;3963;42.658;23.298;2022-08-01T01:54:01;60525.59;;;18.75;66.78
7836;BME280;3963;42.658;23.298;2022-08-01T01:56:29;60558.78;;;18.79;65.91
7836;BME280;3963;42.658;23.298;2022-08-01T01:59:00;60579.03;;;18.89;60.47
7836;BME280;3963;42.658;23.298;2022-08-01T02:01:29;60584.97;;;19.09;58.91
7836;BME280;3963;42.658;23.298;2022-08-01T02:03:59;60598.97;;;19.19;59.35
7836;BME280;3963;42.658;23.298;2022-08-01T02:06:29;60639.16;;;19.27;60.65
7836;BME280;3963;42.658;23.298;2022-08-01T02:08:58;60628.22;;;19.15;60.67
7836;BME280;3963;42.658;23.298;2022-08-01T02:11:27;60592.31;;;19.08;60.54
7836;BME280;3963;42.658;23.298;2022-08-01T02:14:01;60541.53;;;18.98;57.95
7836;BME280;3963;42.658;23.298;2022-08-01T02:16:31;60555.50;;;18.91;58.23
7836;BME280;3963;42.658;23.298;2022-08-01T02:19:02;60573.44;;;18.93;57.71
7836;BME280;3963;42.658;23.298;2022-08-01T02:21:32;60549.09;;;18.88;58.08
7836;BME280;3963;42.658;23.298;2022-08-01T02:24:07;60575.88;;;18.88;57.33
7836;BME280;3963;42.658;23.298;2022-08-01T02:26:39;60584.75;;;18.87;57.24
7836;BME280;3963;42.658;23.298;2022-08-01T02:29:14;60579.59;;;18.89;58.39
7836;BME280;3963;42.658;23.298;2022-08-01T02:31:45;60587.72;;;18.97;58.72
7836;BME280;3963;42.658;23.298;2022-08-01T02:34:17;60539.13;;;18.88;58.22
7836;BME280;3963;42.658;23.298;2022-08-01T02:36:46;60571.44;;;18.96;58.61
7836;BME280;3963;42.658;23.298;2022-08-01T02:39:15;60543.13;;;18.82;58.83
7836;BME280;3963;42.658;23.298;2022-08-01T02:41:46;60543.56;;;18.63;60.00
7836;BME280;3963;42.658;23.298;2022-08-01T02:44:22;60553.72;;;18.85;60.25
7836;BME280;3963;42.658;23.298;2022-08-01T02:46:52;60566.31;;;18.84;60.61
7836;BME280;3963;42.658;23.298;2022-08-01T02:49:23;60541.66;;;18.86;60.96
7836;BME280;3963;42.658;23.298;2022-08-01T02:51:54;60525.88;;;18.68;61.29
7836;BME280;3963;42.658;23.298;2022-08-01T02:54:22;60531.69;;;18.69;61.71
7836;BME280;3963;42.658;23.298;2022-08-01T02:56:50;60568.59;;;18.74;61.80
7836;BME280;3963;42.658;23.298;2022-08-01T02:59:19;60558.09;;;18.74;61.69
7836;BME280;3963;42.658;23.298;2022-08-01T03:01:51;60552.22;;;18.71;61.74
7836;BME280;3963;42.658;23.298;2022-08-01T03:04:21;60545.03;;;18.76;62.03
7836;BME280;3963;42.658;23.298;2022-08-01T03:06:51;60567.06;;;18.75;61.91
7836;BME280;3963;42.658;23.298;2022-08-01T03:09:19;60555.94;;;18.72;62.11
7836;BME280;3963;42.658;23.298;2022-08-01T03:11:48;60549.59;;;18.71;62.41
7836;BME280;3963;42.658;23.298;2022-08-01T03:14:17;60535.56;;;18.75;62.09
7836;BME280;3963;42.658;23.298;2022-08-01T03:16:47;60565.22;;;18.83;61.65
7836;BME280;3963;42.658;23.298;2022-08-01T03:19:18;60570.09;;;18.88;61.93
7836;BME280;3963;42.658;23.298;2022-08-01T03:21:48;60568.13;;;18.76;61.85
7836;BME280;3963;42.658;23.298;2022-08-01T03:24:16;60570.34;;;18.95;61.59
7836;BME280;3963;42.658;23.298;2022-08-01T03:26:45;60597.31;;;19.01;61.05
7836;BME280;3963;42.658;23.298;2022-08-01T03:29:17;60568.81;;;18.96;62.03
7836;BME280;3963;42.658;23.298;2022-08-01T03:31:46;60579.44;;;18.84;64.03
7836;BME280;3963;42.658;23.298;2022-08-01T03:34:14;60542.59;;;18.82;63.54
7836;BME280;3963;42.658;23.298;2022-08-01T03:36:47;60549.75;;;18.76;63.94
7836;BME280;3963;42.658;23.298;2022-08-01T03:39:16;60555.09;;;18.78;64.08
7836;BME280;3963;42.658;23.298;2022-08-01T03:41:50;60553.09;;;18.82;63.88
7836;BME280;3963;42.658;23.298;2022-08-01T03:44:24;60534.38;;;18.71;63.71
7836;BME280;3963;42.658;23.298;2022-08-01T03:46:58;60553.72;;;18.85;63.66
7836;BME280;3963;42.658;23.298;2022-08-01T03:49:29;60552.63;;;18.84;64.10
7836;BME280;3963;42.658;23.298;2022-08-01T03:51:58;60556.25;;;18.82;63.77
7836;BME280;3963;42.658;23.298;2022-08-01T03:54:30;60613.63;;;18.87;63.88
7836;BME280;3963;42.658;23.298;2022-08-01T03:57:00;60529.09;;;18.86;63.93
7836;BME280;3963;42.658;23.298;2022-08-01T03:59:27;60514.88;;;18.85;64.26
7836;BME280;3963;42.658;23.298;2022-08-01T04:01:55;60572.72;;;18.88;64.42
7836;BME280;3963;42.658;23.298;2022-08-01T04:04:22;60566.63;;;18.94;63.50
7836;BME280;3963;42.658;23.298;2022-08-01T04:06:50;60584.63;;;18.99;63.26
7836;BME280;3963;42.658;23.298;2022-08-01T04:09:21;60586.59;;;19.10;62.53
7836;BME280;3963;42.658;23.298;2022-08-01T04:11:49;60607.41;;;19.20;62.14
7836;BME280;3963;42.658;23.298;2022-08-01T04:14:16;60624.03;;;19.30;61.90
7836;BME280;3963;42.658;23.298;2022-08-01T04:16:43;60630.91;;;19.32;61.22
7836;BME280;3963;42.658;23.298;2022-08-01T04:19:10;60629.19;;;19.43;61.11
7836;BME280;3963;42.658;23.298;2022-08-01T04:21:38;60639.56;;;19.55;60.31
7836;BME280;3963;42.658;23.298;2022-08-01T04:24:16;60694.28;;;19.57;61.03
7836;BME280;3963;42.658;23.298;2022-08-01T04:26:47;60657.63;;;19.45;68.80
7836;BME280;3963;42.658;23.298;2022-08-01T04:29:16;60616.91;;;19.21;72.43
7836;BME280;3963;42.658;23.298;2022-08-01T04:31:46;60554.50;;;18.93;73.36
7836;BME280;3963;42.658;23.298;2022-08-01T04:34:16;60578.53;;;18.73;73.72
7836;BME280;3963;42.658;23.298;2022-08-01T04:36:44;60533.13;;;18.65;75.35
7836;BME280;3963;42.658;23.298;2022-08-01T04:39:13;60530.59;;;18.68;74.18
7836;BME280;3963;42.658;23.298;2022-08-01T04:41:45;60556.84;;;18.68;73.82
7836;BME280;3963;42.658;23.298;2022-08-01T04:44:13;60563.97;;;18.77;73.57
7836;BME280;3963;42.658;23.298;2022-08-01T04:46:40;60538.34;;;18.80;73.02
7836;BME280;3963;42.658;23.298;2022-08-01T04:49:08;60548.63;;;18.90;72.74
7836;BME280;3963;42.658;23.298;2022-08-01T04:51:35;60598.94;;;19.02;71.31
7836;BME280;3963;42.658;23.298;2022-08-01T04:54:02;60612.03;;;19.17;70.27
7836;BME280;3963;42.658;23.298;2022-08-01T04:56:29;60596.63;;;19.12;75.83
7836;BME280;3963;42.658;23.298;2022-08-01T04:59:00;60559.63;;;19.05;79.10
7836;BME280;3963;42.658;23.298;2022-08-01T05:01:48;60541.22;;;18.88;81.16
7836;BME280;3963;42.658;23.298;2022-08-01T05:04:15;60571.38;;;18.79;78.47
7836;BME280;3963;42.658;23.298;2022-08-01T05:06:42;60585.31;;;18.87;77.57
7836;BME280;3963;42.658;23.298;2022-08-01T05:09:09;60544.75;;;18.84;77.35
7836;BME280;3963;42.658;23.298;2022-08-01T05:11:36;60539.94;;;18.96;77.06
7836;BME280;3963;42.658;23.298;2022-08-01T05:14:04;60584.34;;;19.06;75.77
7836;BME280;3963;42.658;23.298;2022-08-01T05:16:31;60629.28;;;19.30;75.07
7836;BME280;3963;42.658;23.298;2022-08-01T05:18:58;60623.31;;;19.40;73.83
7836;BME280;3963;42.658;23.298;2022-08-01T05:21:25;60638.59;;;19.42;75.59
7836;BME280;3963;42.658;23.298;2022-08-01T05:23:52;60654.09;;;19.49;74.93
7836;BME280;3963;42.658;23.298;2022-08-01T05:26:19;60665.38;;;19.57;74.33
7836;BME280;3963;42.658;23.298;2022-08-01T05:28:46;60690.63;;;19.73;73.77
7836;BME280;3963;42.658;23.298;2022-08-01T05:31:14;60686.16;;;19.81;70.48
7836;BME280;3963;42.658;23.298;2022-08-01T05:33:41;60704.53;;;19.96;67.31
7836;BME280;3963;42.658;23.298;2022-08-01T05:36:09;60750.75;;;20.09;65.03
7836;BME280;3963;42.658;23.298;2022-08-01T05:38:36;60738.53;;;20.22;63.90
7836;BME280;3963;42.658;23.298;2022-08-01T05:41:03;60774.19;;;20.33;62.84
7836;BME280;3963;42.658;23.298;2022-08-01T05:43:30;60789.25;;;20.42;61.26
7836;BME280;3963;42.658;23.298;2022-08-01T05:45:56;60782.88;;;20.41;60.07
7836;BME280;3963;42.658;23.298;2022-08-01T05:48:25;60787.00;;;20.55;60.51
7836;BME280;3963;42.658;23.298;2022-08-01T05:50:53;60817.41;;;20.66;60.12
7836;BME280;3963;42.658;23.298;2022-08-01T05:53:20;60815.41;;;20.69;61.12
7836;BME280;3963;42.658;23.298;2022-08-01T05:55:46;60819.34;;;20.78;60.99
7836;BME280;3963;42.658;23.298;2022-08-01T05:58:13;60819.44;;;20.80;59.22
7836;BME280;3963;42.658;23.298;2022-08-01T06:00:40;60831.38;;;20.60;59.83
7836;BME280;3963;42.658;23.298;2022-08-01T06:03:07;60845.69;;;20.78;60.47
7836;BME280;3963;42.658;23.298;2022-08-01T06:05:35;60877.25;;;20.92;60.41
7836;BME280;3963;42.658;23.298;2022-08-01T06:08:02;60889.41;;;20.94;60.25
7836;BME280;3963;42.658;23.298;2022-08-01T06:10:29;60852.38;;;20.89;59.76
7836;BME280;3963;42.658;23.298;2022-08-01T06:12:56;60876.88;;;20.97;59.46
7836;BME280;3963;42.658;23.298;2022-08-01T06:15:25;60862.94;;;21.06;59.85
7836;BME280;3963;42.658;23.298;2022-08-01T06:17:51;60855.25;;;21.11;60.05
7836;BME280;3963;42.658;23.298;2022-08-01T06:20:18;60884.84;;;21.14;58.87
7836;BME280;3963;42.658;23.298;2022-08-01T06:22:47;60908.19;;;21.19;58.99
7836;BME280;3963;42.658;23.298;2022-08-01T06:25:14;60869.75;;;21.20;59.48
7836;BME280;3963;42.658;23.298;2022-08-01T06:27:41;60872.53;;;21.25;58.91
7836;BME280;3963;42.658;23.298;2022-08-01T06:30:09;60895.78;;;21.27;59.18
7836;BME280;3963;42.658;23.298;2022-08-01T06:32:36;60899.41;;;21.40;58.47
7836;BME280;3963;42.658;23.298;2022-08-01T06:35:04;60907.31;;;21.40;57.74
7836;BME280;3963;42.658;23.298;2022-08-01T06:37:32;60908.00;;;21.45;58.90
7836;BME280;3963;42.658;23.298;2022-08-01T06:40:02;60910.81;;;21.50;58.25
7836;BME280;3963;42.658;23.298;2022-08-01T06:42:29;60936.25;;;21.55;58.63
7836;BME280;3963;42.658;23.298;2022-08-01T06:44:57;60952.69;;;21.58;58.50
7836;BME280;3963;42.658;23.298;2022-08-01T06:47:24;60956.31;;;21.71;57.86
7836;BME280;3963;42.658;23.298;2022-08-01T06:49:50;60967.19;;;21.81;57.59
7836;BME280;3963;42.658;23.298;2022-08-01T06:52:18;60978.44;;;21.86;57.55
7836;BME280;3963;42.658;23.298;2022-08-01T06:54:45;61031.09;;;21.98;58.41
7836;BME280;3963;42.658;23.298;2022-08-01T06:57:14;61028.25;;;22.08;57.58
7836;BME280;3963;42.658;23.298;2022-08-01T06:59:41;60976.25;;;21.99;57.72
7836;BME280;3963;42.658;23.298;2022-08-01T07:02:09;60992.38;;;21.92;58.04
7836;BME280;3963;42.658;23.298;2022-08-01T07:04:36;61055.34;;;22.14;58.32
7836;BME280;3963;42.658;23.298;2022-08-01T07:07:03;61087.66;;;22.63;57.09
7836;BME280;3963;42.658;23.298;2022-08-01T07:09:30;61166.44;;;23.11;54.92
7836;BME280;3963;42.658;23.298;2022-08-01T07:11:57;61227.06;;;23.38;53.84
7836;BME280;3963;42.658;23.298;2022-08-01T07:14:25;61180.31;;;23.32;54.64
7836;BME280;3963;42.658;23.298;2022-08-01T07:16:52;61280.50;;;23.85;54.05
7836;BME280;3963;42.658;23.298;2022-08-01T07:19:19;61366.94;;;24.36;51.23
7836;BME280;3963;42.658;23.298;2022-08-01T07:21:46;61418.53;;;24.73;51.44
7836;BME280;3963;42.658;23.298;2022-08-01T07:24:14;61427.88;;;24.67;51.56
7836;BME280;3963;42.658;23.298;2022-08-01T07:26:42;61401.47;;;24.55;51.46
7836;BME280;3963;42.658;23.298;2022-08-01T07:29:09;61456.63;;;24.87;51.65
7836;BME280;3963;42.658;23.298;2022-08-01T07:31:38;61499.97;;;25.29;50.77
7836;BME280;3963;42.658;23.298;2022-08-01T07:34:05;61568.47;;;25.77;49.09
7836;BME280;3963;42.658;23.298;2022-08-01T07:36:32;61559.72;;;25.86;46.50
7836;BME280;3963;42.658;23.298;2022-08-01T07:38:59;61615.72;;;26.09;46.89
7836;BME280;3963;42.658;23.298;2022-08-01T07:41:26;61692.38;;;26.28;45.56
7836;BME280;3963;42.658;23.298;2022-08-01T07:43:53;61622.28;;;25.83;46.92
7836;BME280;3963;42.658;23.298;2022-08-01T07:46:20;61545.91;;;25.54;47.38
7836;BME280;3963;42.658;23.298;2022-08-01T07:48:48;61467.63;;;25.14;47.76
7836;BME280;3963;42.658;23.298;2022-08-01T07:51:15;61654.47;;;26.08;46.79
7836;BME280;3963;42.658;23.298;2022-08-01T07:53:42;61715.28;;;26.61;44.27
7836;BME280;3963;42.658;23.298;2022-08-01T07:56:09;61837.16;;;27.24;41.99
7836;BME280;3963;42.658;23.298;2022-08-01T07:58:38;61925.50;;;27.69;41.10
7836;BME280;3963;42.658;23.298;2022-08-01T08:01:05;61950.91;;;28.26;40.19
7836;BME280;3963;42.658;23.298;2022-08-01T08:03:32;62125.72;;;28.98;38.42
7836;BME280;3963;42.658;23.298;2022-08-01T08:06:00;62114.41;;;28.95;38.69
7836;BME280;3963;42.658;23.298;2022-08-01T08:08:27;62052.44;;;28.63;38.67
7836;BME280;3963;42.658;23.298;2022-08-01T08:10:54;62107.44;;;28.79;38.81
7836;BME280;3963;42.658;23.298;2022-08-01T08:13:21;62082.31;;;28.93;38.13
7836;BME280;3963;42.658;23.298;2022-08-01T08:15:48;62151.47;;;29.17;37.75
7836;BME280;3963;42.658;23.298;2022-08-01T08:18:15;62146.13;;;29.17;37.89
7836;BME280;3963;42.658;23.298;2022-08-01T08:20:41;62056.50;;;28.57;39.14
7836;BME280;3963;42.658;23.298;2022-08-01T08:23:10;61967.25;;;28.05;39.70
7836;BME280;3963;42.658;23.298;2022-08-01T08:25:51;62079.13;;;28.78;39.48
7836;BME280;3963;42.658;23.298;2022-08-01T08:28:18;62077.94;;;28.60;38.43
7836;BME280;3963;42.658;23.298;2022-08-01T08:30:45;62248.19;;;29.64;37.10
7836;BME280;3963;42.658;23.298;2022-08-01T08:33:11;62334.44;;;30.13;36.54
7836;BME280;3963;42.658;23.298;2022-08-01T08:35:39;62196.81;;;29.46;37.32
7836;BME280;3963;42.658;23.298;2022-08-01T08:38:05;62181.38;;;29.32;37.30
7836;BME280;3963;42.658;23.298;2022-08-01T08:40:35;62199.34;;;29.41;37.38
7836;BME280;3963;42.658;23.298;2022-08-01T08:43:04;62172.34;;;29.19;37.61
7836;BME280;3963;42.658;23.298;2022-08-01T08:45:32;62316.03;;;29.92;35.78
7836;BME280;3963;42.658;23.298;2022-08-01T08:48:00;62242.28;;;29.78;35.87
7836;BME280;3963;42.658;23.298;2022-08-01T08:50:28;62289.09;;;30.01;35.33
7836;BME280;3963;42.658;23.298;2022-08-01T08:52:56;62319.47;;;30.29;33.84
7836;BME280;3963;42.658;23.298;2022-08-01T08:55:23;62335.91;;;30.25;33.92
7836;BME280;3963;42.658;23.298;2022-08-01T08:57:52;62311.97;;;29.98;34.03
7836;BME280;3963;42.658;23.298;2022-08-01T09:00:19;62233.88;;;29.51;35.35
7836;BME280;3963;42.658;23.298;2022-08-01T09:02:47;62239.06;;;29.63;34.29
7836;BME280;3963;42.658;23.298;2022-08-01T09:05:15;62291.88;;;29.89;33.98
7836;BME280;3963;42.658;23.298;2022-08-01T09:07:44;62278.31;;;29.84;33.65
7836;BME280;3963;42.658;23.298;2022-08-01T09:10:11;62137.97;;;28.97;34.40
7836;BME280;3963;42.658;23.298;2022-08-01T09:12:38;62207.72;;;29.22;33.38
7836;BME280;3963;42.658;23.298;2022-08-01T09:15:07;62340.84;;;30.29;32.77
7836;BME280;3963;42.658;23.298;2022-08-01T09:17:41;62504.09;;;31.02;32.62
7836;BME280;3963;42.658;23.298;2022-08-01T09:20:22;62594.47;;;31.72;31.39
7836;BME280;3963;42.658;23.298;2022-08-01T09:22:50;62507.41;;;31.05;32.53
7836;BME280;3963;42.658;23.298;2022-08-01T09:25:16;62304.84;;;29.94;34.14
7836;BME280;3963;42.658;23.298;2022-08-01T09:27:43;62307.81;;;29.87;34.86
7836;BME280;3963;42.658;23.298;2022-08-01T09:30:14;62303.66;;;29.90;33.20
7836;BME280;3963;42.658;23.298;2022-08-01T09:32:53;62167.41;;;29.15;34.78
7836;BME280;3963;42.658;23.298;2022-08-01T09:35:25;62268.34;;;29.90;34.15
7836;BME280;3963;42.658;23.298;2022-08-01T09:38:11;62317.66;;;30.08;34.68
7836;BME280;3963;42.658;23.298;2022-08-01T09:40:50;62354.41;;;30.34;34.20
7836;BME280;3963;42.658;23.298;2022-08-01T09:43:20;62412.06;;;30.60;34.16
7836;BME280;3963;42.658;23.298;2022-08-01T09:45:49;62466.19;;;31.07;33.69
7836;BME280;3963;42.658;23.298;2022-08-01T09:50:44;62700.72;;;32.18;32.74
7836;BME280;3963;42.658;23.298;2022-08-01T09:53:12;62639.88;;;31.82;33.00
7836;BME280;3963;42.658;23.298;2022-08-01T09:55:40;62558.44;;;31.40;33.64
7836;BME280;3963;42.658;23.298;2022-08-01T09:58:08;62601.34;;;31.69;33.57
7836;BME280;3963;42.658;23.298;2022-08-01T10:00:37;62703.41;;;32.18;32.84
7836;BME280;3963;42.658;23.298;2022-08-01T10:03:20;62608.16;;;31.80;32.54
7836;BME280;3963;42.658;23.298;2022-08-01T10:05:47;62599.09;;;31.38;32.37
7836;BME280;3963;42.658;23.298;2022-08-01T10:08:14;62627.22;;;31.73;31.84
7836;BME280;3963;42.658;23.298;2022-08-01T10:10:42;62725.06;;;32.38;31.79
7836;BME280;3963;42.658;23.298;2022-08-01T10:13:10;62792.66;;;32.79;31.33
7836;BME280;3963;42.658;23.298;2022-08-01T10:15:39;62822.56;;;32.75;30.82
7836;BME280;3963;42.658;23.298;2022-08-01T10:18:07;62923.84;;;33.25;31.13
7836;BME280;3963;42.658;23.298;2022-08-01T10:20:36;62777.28;;;32.70;30.92
7836;BME280;3963;42.658;23.298;2022-08-01T10:23:04;62651.34;;;32.02;32.28
7836;BME280;3963;42.658;23.298;2022-08-01T10:25:34;62786.44;;;32.57;31.36
7836;BME280;3963;42.658;23.298;2022-08-01T10:28:06;62835.34;;;32.86;30.33
7836;BME280;3963;42.658;23.298;2022-08-01T10:30:37;62774.38;;;32.51;30.44
7836;BME280;3963;42.658;23.298;2022-08-01T10:33:04;62598.75;;;31.57;31.42
7836;BME280;3963;42.658;23.298;2022-08-01T10:35:31;62628.03;;;31.66;32.14
7836;BME280;3963;42.658;23.298;2022-08-01T10:38:00;62597.66;;;31.56;31.86
7836;BME280;3963;42.658;23.298;2022-08-01T10:40:27;62489.66;;;31.04;32.63
7836;BME280;3963;42.658;23.298;2022-08-01T10:42:56;62427.47;;;30.71;32.68
7836;BME280;3963;42.658;23.298;2022-08-01T10:45:23;62560.94;;;31.64;31.70
7836;BME280;3963;42.658;23.298;2022-08-01T10:47:57;62685.56;;;32.14;30.96
7836;BME280;3963;42.658;23.298;2022-08-01T10:50:29;62442.41;;;30.70;32.65
7836;BME280;3963;42.658;23.298;2022-08-01T10:53:10;62320.75;;;30.21;33.39
7836;BME280;3963;42.658;23.298;2022-08-01T10:55:48;62529.72;;;31.31;32.31
7836;BME280;3963;42.658;23.298;2022-08-01T10:58:21;62392.50;;;30.37;33.25
7836;BME280;3963;42.658;23.298;2022-08-01T11:00:48;62401.50;;;30.80;33.70
7836;BME280;3963;42.658;23.298;2022-08-01T11:03:15;62553.56;;;31.38;33.21
7836;BME280;3963;42.658;23.298;2022-08-01T11:05:58;62593.94;;;31.72;32.32
7836;BME280;3963;42.658;23.298;2022-08-01T11:08:27;62490.84;;;31.07;32.40
7836;BME280;3963;42.658;23.298;2022-08-01T11:11:00;62407.78;;;30.76;33.11
7836;BME280;3963;42.658;23.298;2022-08-01T11:14:02;62478.31;;;30.86;33.96
7836;BME280;3963;42.658;23.298;2022-08-01T11:16:34;62312.28;;;30.23;34.07
7836;BME280;3963;42.658;23.298;2022-08-01T11:19:02;62214.72;;;29.38;34.80
7836;BME280;3963;42.658;23.298;2022-08-01T11:21:59;62131.84;;;29.21;35.63
7836;BME280;3963;42.658;23.298;2022-08-01T11:25:00;62124.69;;;29.15;35.73
7836;BME280;3963;42.658;23.298;2022-08-01T11:27:29;62147.53;;;29.11;36.47
7836;BME280;3963;42.658;23.298;2022-08-01T11:30:21;62201.63;;;29.46;36.11
7836;BME280;3963;42.658;23.298;2022-08-01T11:32:50;62130.22;;;29.05;36.41
7836;BME280;3963;42.658;23.298;2022-08-01T11:35:17;62053.63;;;28.81;37.13
7836;BME280;3963;42.658;23.298;2022-08-01T11:37:46;62092.88;;;28.90;37.34
7836;BME280;3963;42.658;23.298;2022-08-01T11:40:16;62097.50;;;28.85;36.92
7836;BME280;3963;42.658;23.298;2022-08-01T11:42:43;62110.19;;;28.96;36.71
7836;BME280;3963;42.658;23.298;2022-08-01T11:45:10;62081.06;;;28.72;37.63
7836;BME280;3963;42.658;23.298;2022-08-01T11:47:44;62040.50;;;28.57;37.37
7836;BME280;3963;42.658;23.298;2022-08-01T11:50:30;62030.25;;;28.23;38.36
7836;BME280;3963;42.658;23.298;2022-08-01T11:52:58;61982.09;;;28.18;39.01
7836;BME280;3963;42.658;23.298;2022-08-01T11:55:27;62002.06;;;28.56;38.71
7836;BME280;3963;42.658;23.298;2022-08-01T11:58:02;62023.22;;;28.51;38.96
7836;BME280;3963;42.658;23.298;2022-08-01T12:00:29;62048.03;;;28.74;38.52
7836;BME280;3963;42.658;23.298;2022-08-01T12:02:58;62043.53;;;28.67;38.65
7836;BME280;3963;42.658;23.298;2022-08-01T12:05:25;62020.91;;;28.61;38.76
7836;BME280;3963;42.658;23.298;2022-08-01T12:07:53;62022.22;;;28.38;39.15
7836;BME280;3963;42.658;23.298;2022-08-01T12:10:22;62063.03;;;28.75;38.86
7836;BME280;3963;42.658;23.298;2022-08-01T12:12:52;62035.34;;;28.62;38.65
7836;BME280;3963;42.658;23.298;2022-08-01T12:15:21;61977.69;;;28.14;38.75
7836;BME280;3963;42.658;23.298;2022-08-01T12:17:50;61874.16;;;27.63;40.37
7836;BME280;3963;42.658;23.298;2022-08-01T12:20:20;61976.16;;;28.00;40.10
7836;BME280;3963;42.658;23.298;2022-08-01T12:22:52;61937.94;;;28.05;39.45
7836;BME280;3963;42.658;23.298;2022-08-01T12:25:19;61936.63;;;28.13;39.09
7836;BME280;3963;42.658;23.298;2022-08-01T12:27:47;61959.88;;;28.08;39.37
7836;BME280;3963;42.658;23.298;2022-08-01T12:30:17;61926.97;;;28.12;38.73
7836;BME280;3963;42.658;23.298;2022-08-01T12:32:45;61965.09;;;28.20;39.16
7836;BME280;3963;42.658;23.298;2022-08-01T12:35:14;61930.69;;;27.95;39.51
7836;BME280;3963;42.658;23.298;2022-08-01T12:37:43;61896.06;;;27.81;39.57
7836;BME280;3963;42.658;23.298;2022-08-01T12:40:13;61876.75;;;27.61;40.41
7836;BME280;3963;42.658;23.298;2022-08-01T12:42:41;61800.66;;;27.15;41.50
7836;BME280;3963;42.658;23.298;2022-08-01T12:45:09;61812.84;;;27.29;41.36
7836;BME280;3963;42.658;23.298;2022-08-01T12:47:38;61781.25;;;26.92;41.56
7836;BME280;3963;42.658;23.298;2022-08-01T12:50:07;61788.38;;;27.14;41.80
7836;BME280;3963;42.658;23.298;2022-08-01T12:52:35;61811.44;;;27.35;41.59
7836;BME280;3963;42.658;23.298;2022-08-01T12:55:05;61883.66;;;27.60;41.40
7836;BME280;3963;42.658;23.298;2022-08-01T12:57:34;61907.75;;;27.79;41.15
7836;BME280;3963;42.658;23.298;2022-08-01T13:00:06;61850.25;;;27.80;39.86
7836;BME280;3963;42.658;23.298;2022-08-01T13:02:34;61869.31;;;27.61;40.33
7836;BME280;3963;42.658;23.298;2022-08-01T13:05:03;61881.81;;;27.53;41.66
7836;BME280;3963;42.658;23.298;2022-08-01T13:07:38;61907.59;;;27.74;41.71
7836;BME280;3963;42.658;23.298;2022-08-01T13:10:06;61925.75;;;27.76;41.09
7836;BME280;3963;42.658;23.298;2022-08-01T13:12:33;61896.50;;;27.93;40.38
7836;BME280;3963;42.658;23.298;2022-08-01T13:15:16;61963.19;;;28.11;40.02
7836;BME280;3963;42.658;23.298;2022-08-01T13:17:43;61936.81;;;28.03;39.98
7836;BME280;3963;42.658;23.298;2022-08-01T13:20:21;61948.88;;;27.97;39.70
7836;BME280;3963;42.658;23.298;2022-08-01T13:22:48;61919.63;;;28.00;40.06
7836;BME280;3963;42.658;23.298;2022-08-01T13:25:16;61877.53;;;27.69;40.99